createdAt,value
2023-05-17T00:00:51.194Z,15.58
2023-05-17T00:03:20.387Z,15.60
2023-05-17T00:05:47.790Z,15.55
2023-05-17T00:08:15.107Z,15.66
2023-05-17T00:10:42.956Z,15.67
2023-05-17T00:13:10.356Z,15.65
2023-05-17T00:15:37.732Z,15.71
2023-05-17T00:18:05.455Z,15.73
2023-05-17T00:20:32.897Z,15.72
2023-05-17T00:23:00.525Z,15.75
2023-05-17T00:25:28.070Z,15.75
2023-05-17T00:27:55.505Z,15.73
2023-05-17T00:30:22.855Z,15.75
2023-05-17T00:32:50.648Z,15.71
2023-05-17T00:35:19.092Z,15.75
2023-05-17T00:37:47.495Z,15.77
2023-05-17T00:40:15.937Z,15.78
2023-05-17T00:42:43.285Z,15.80
2023-05-17T00:45:11.164Z,15.79
2023-05-17T00:47:39.047Z,15.81
2023-05-17T00:50:07.202Z,15.82
2023-05-17T00:52:36.290Z,15.84
2023-05-17T00:55:04.085Z,15.87
2023-05-17T00:57:31.883Z,15.90
2023-05-17T01:00:02.159Z,15.91
2023-05-17T01:02:29.851Z,15.93
2023-05-17T01:04:57.746Z,15.90
2023-05-17T01:07:25.307Z,15.90
2023-05-17T01:09:53.096Z,15.81
2023-05-17T01:12:58.652Z,15.74
2023-05-17T01:15:31.456Z,15.70
2023-05-17T01:18:23.543Z,15.69
2023-05-17T01:20:53.105Z,15.68
2023-05-17T01:23:52.873Z,15.68
2023-05-17T01:26:46.869Z,15.65
2023-05-17T01:29:16.936Z,15.58
2023-05-17T01:31:44.558Z,15.52
2023-05-17T01:34:12.672Z,15.50
2023-05-17T01:36:40.164Z,15.44
2023-05-17T01:39:09.331Z,15.45
2023-05-17T01:41:41.869Z,15.36
2023-05-17T01:45:06.305Z,15.38
2023-05-17T01:47:38.440Z,15.32
2023-05-17T01:50:08.169Z,15.31
2023-05-17T01:53:10.889Z,15.29
2023-05-17T01:55:52.629Z,15.22
2023-05-17T01:58:29.126Z,15.12
2023-05-17T02:01:00.473Z,15.09
2023-05-17T02:03:29.167Z,15.01
2023-05-17T02:05:56.548Z,14.82
2023-05-17T02:08:24.366Z,14.73
2023-05-17T02:10:51.798Z,14.56
2023-05-17T02:13:19.126Z,14.56
2023-05-17T02:15:46.839Z,14.50
2023-05-17T02:18:14.373Z,14.35
2023-05-17T02:20:41.756Z,14.27
2023-05-17T02:23:09.067Z,14.18
2023-05-17T02:25:36.460Z,14.03
2023-05-17T02:28:04.022Z,14.12
2023-05-17T02:30:31.750Z,14.10
2023-05-17T02:32:59.300Z,13.90
2023-05-17T02:35:27.033Z,13.95
2023-05-17T02:37:54.569Z,13.97
2023-05-17T02:40:21.848Z,14.14
2023-05-17T02:42:49.121Z,14.15
2023-05-17T02:45:16.516Z,14.25
2023-05-17T02:47:44.194Z,14.34
2023-05-17T02:50:11.637Z,14.36
2023-05-17T02:52:39.235Z,14.47
2023-05-17T02:55:07.736Z,14.54
2023-05-17T02:57:35.048Z,14.65
2023-05-17T03:00:03.233Z,14.67
2023-05-17T03:02:31.013Z,14.80
2023-05-17T03:04:58.417Z,14.84
2023-05-17T03:07:25.828Z,14.76
2023-05-17T03:09:53.720Z,14.84
2023-05-17T03:12:21.153Z,14.86
2023-05-17T03:14:48.862Z,14.80
2023-05-17T03:17:16.468Z,14.75
2023-05-17T03:19:44.042Z,14.65
2023-05-17T03:22:11.461Z,14.70
2023-05-17T03:24:39.090Z,14.72
2023-05-17T03:27:06.692Z,14.73
2023-05-17T03:29:35.542Z,14.71
2023-05-17T03:32:03.226Z,14.77
2023-05-17T03:34:30.906Z,14.74
2023-05-17T03:36:58.291Z,14.74
2023-05-17T03:39:25.843Z,14.67
2023-05-17T03:41:53.179Z,14.68
2023-05-17T03:44:21.740Z,14.59
2023-05-17T03:46:49.973Z,14.64
2023-05-17T03:49:18.017Z,14.58
2023-05-17T03:51:46.285Z,14.57
2023-05-17T03:54:13.771Z,14.56
2023-05-17T03:56:43.247Z,14.64
2023-05-17T03:59:10.656Z,14.68
2023-05-17T04:01:40.150Z,14.71
2023-05-17T04:04:07.637Z,14.67
2023-05-17T04:06:35.221Z,14.58
2023-05-17T04:09:04.342Z,14.60
2023-05-17T04:11:32.860Z,14.63
2023-05-17T04:14:00.284Z,14.71
2023-05-17T04:16:27.742Z,14.80
2023-05-17T04:18:55.560Z,14.84
2023-05-17T04:21:22.986Z,14.93
2023-05-17T04:23:52.747Z,15.10
2023-05-17T04:26:20.659Z,15.22
2023-05-17T04:28:48.983Z,15.40
2023-05-17T04:31:17.538Z,15.53
2023-05-17T04:33:45.391Z,15.61
2023-05-17T04:36:13.793Z,15.72
2023-05-17T04:38:41.727Z,15.75
2023-05-17T04:41:10.959Z,15.85
2023-05-17T04:43:39.713Z,15.98
2023-05-17T04:46:10.883Z,16.01
2023-05-17T04:48:38.809Z,16.03
2023-05-17T04:51:06.264Z,15.98
2023-05-17T04:53:33.933Z,15.96
2023-05-17T04:56:04.503Z,15.92
2023-05-17T04:58:32.278Z,15.95
2023-05-17T05:01:00.355Z,15.96
2023-05-17T05:03:27.950Z,15.95
2023-05-17T05:05:55.817Z,15.97
2023-05-17T05:08:33.562Z,15.92
2023-05-17T05:11:02.600Z,15.92
2023-05-17T05:13:30.225Z,15.94
2023-05-17T05:15:57.553Z,15.94
2023-05-17T05:18:25.546Z,15.91
2023-05-17T05:20:53.382Z,15.95
2023-05-17T05:23:21.516Z,15.98
2023-05-17T05:26:00.035Z,16.01
2023-05-17T05:28:28.000Z,16.12
2023-05-17T05:31:01.448Z,16.24
2023-05-17T05:33:34.934Z,16.27
2023-05-17T05:36:02.617Z,16.30
2023-05-17T05:38:59.965Z,16.26
2023-05-17T05:41:29.245Z,16.21
2023-05-17T05:43:56.780Z,16.20
2023-05-17T05:46:46.618Z,16.34
2023-05-17T05:49:14.581Z,16.44
2023-05-17T05:51:42.155Z,16.47
2023-05-17T05:54:10.769Z,16.47
2023-05-17T05:56:41.584Z,16.64
2023-05-17T05:59:09.868Z,16.86
2023-05-17T06:01:38.066Z,16.95
2023-05-17T06:04:06.037Z,17.09
2023-05-17T06:06:33.848Z,17.32
2023-05-17T06:09:01.617Z,17.42
2023-05-17T06:11:29.110Z,17.48
2023-05-17T06:13:56.425Z,17.36
2023-05-17T06:16:24.075Z,17.43
2023-05-17T06:18:51.692Z,17.62
2023-05-17T06:21:19.303Z,17.73
2023-05-17T06:24:19.412Z,17.79
2023-05-17T06:27:29.172Z,17.92
2023-05-17T06:29:56.875Z,18.06
2023-05-17T06:32:24.555Z,18.11
2023-05-17T06:34:53.053Z,18.18
2023-05-17T06:37:20.737Z,18.15
2023-05-17T06:39:55.782Z,18.13
2023-05-17T06:42:35.365Z,18.15
2023-05-17T06:46:41.492Z,18.14
2023-05-17T06:49:37.335Z,18.38
2023-05-17T06:52:05.687Z,18.36
2023-05-17T06:54:33.320Z,18.58
2023-05-17T06:57:03.081Z,18.70
2023-05-17T06:59:30.888Z,18.84
2023-05-17T07:02:00.319Z,18.96
2023-05-17T07:04:28.179Z,19.00
2023-05-17T07:06:55.912Z,19.22
2023-05-17T07:09:23.373Z,19.28
2023-05-17T07:11:51.103Z,19.43
2023-05-17T07:14:18.640Z,19.51
2023-05-17T07:16:47.545Z,19.61
2023-05-17T07:19:15.642Z,19.73
2023-05-17T07:21:56.232Z,19.87
2023-05-17T07:24:24.133Z,19.99
2023-05-17T07:26:52.645Z,20.09
2023-05-17T07:29:20.422Z,20.16
2023-05-17T07:31:48.089Z,20.22
2023-05-17T07:34:15.845Z,20.27
2023-05-17T07:36:43.485Z,20.26
2023-05-17T07:40:59.981Z,20.24
2023-05-17T07:43:27.608Z,20.42
2023-05-17T07:45:55.498Z,20.51
2023-05-17T07:48:23.426Z,20.51
2023-05-17T07:50:51.565Z,20.59
2023-05-17T07:53:19.633Z,20.62
2023-05-17T07:55:50.386Z,20.70
2023-05-17T07:58:17.867Z,20.81
2023-05-17T08:00:45.542Z,20.88
2023-05-17T08:03:14.465Z,20.92
2023-05-17T08:05:44.926Z,20.95
2023-05-17T08:08:12.378Z,20.98
2023-05-17T08:10:39.958Z,21.04
2023-05-17T08:13:07.597Z,21.10
2023-05-17T08:15:35.182Z,21.18
2023-05-17T08:18:04.840Z,21.24
2023-05-17T08:20:32.850Z,21.30
2023-05-17T08:23:00.194Z,21.36
2023-05-17T08:25:28.750Z,21.44
2023-05-17T08:27:56.604Z,21.52
2023-05-17T08:30:28.812Z,21.59
2023-05-17T08:33:04.045Z,21.68
2023-05-17T08:35:39.819Z,21.65
2023-05-17T08:38:08.356Z,21.65
2023-05-17T08:40:37.190Z,21.67
2023-05-17T08:43:06.286Z,21.73
2023-05-17T08:45:34.869Z,21.81
2023-05-17T08:48:03.229Z,21.90
2023-05-17T08:50:34.362Z,21.88
2023-05-17T08:53:02.678Z,22.01
2023-05-17T08:55:32.890Z,22.10
2023-05-17T08:58:00.942Z,22.06
2023-05-17T09:00:28.971Z,22.11
2023-05-17T09:02:59.317Z,22.16
2023-05-17T09:05:28.606Z,22.25
2023-05-17T09:07:56.081Z,22.19
2023-05-17T09:10:24.469Z,22.20
2023-05-17T09:12:53.348Z,22.24
2023-05-17T09:15:23.781Z,22.13
2023-05-17T09:17:56.043Z,22.30
2023-05-17T09:20:25.719Z,22.39
2023-05-17T09:22:53.424Z,22.49
2023-05-17T09:25:24.250Z,22.51
2023-05-17T09:27:59.114Z,22.61
2023-05-17T09:30:29.250Z,22.59
2023-05-17T09:32:57.825Z,22.66
2023-05-17T09:35:30.436Z,22.63
2023-05-17T09:38:13.665Z,22.58
2023-05-17T09:40:43.952Z,22.59
2023-05-17T09:43:12.855Z,22.52
2023-05-17T09:45:40.877Z,22.36
2023-05-17T09:48:13.577Z,22.18
2023-05-17T09:51:00.657Z,22.10
2023-05-17T09:53:33.602Z,22.15
2023-05-17T09:56:09.505Z,22.13
2023-05-17T09:58:42.415Z,22.03
2023-05-17T10:01:11.081Z,22.17
2023-05-17T10:03:38.846Z,22.33
2023-05-17T10:06:09.942Z,22.41
2023-05-17T10:08:50.785Z,22.52
2023-05-17T10:11:22.654Z,22.56
2023-05-17T10:14:04.435Z,22.53
2023-05-17T10:16:34.183Z,22.62
2023-05-17T10:19:03.601Z,22.64
2023-05-17T10:21:32.536Z,22.72
2023-05-17T10:24:02.225Z,22.70
2023-05-17T10:26:33.181Z,22.63
2023-05-17T10:29:01.821Z,22.71
2023-05-17T10:31:30.573Z,22.76
2023-05-17T10:34:00.640Z,22.72
2023-05-17T10:36:28.538Z,22.81
2023-05-17T10:38:56.738Z,22.86
2023-05-17T10:41:33.010Z,22.84
2023-05-17T10:44:07.668Z,22.84
2023-05-17T10:46:37.024Z,22.86
2023-05-17T10:49:04.651Z,22.81
2023-05-17T10:51:37.326Z,22.73
2023-05-17T10:54:18.524Z,22.80
2023-05-17T10:56:52.345Z,22.76
2023-05-17T10:59:27.565Z,22.67
2023-05-17T11:02:09.896Z,22.59
2023-05-17T11:04:39.547Z,22.59
2023-05-17T11:07:21.851Z,22.58
2023-05-17T11:09:55.460Z,22.57
2023-05-17T11:12:40.533Z,22.59
2023-05-17T11:15:17.658Z,22.53
2023-05-17T11:17:52.211Z,22.51
2023-05-17T11:20:25.804Z,22.38
2023-05-17T11:22:58.913Z,22.47
2023-05-17T11:25:36.823Z,22.50
2023-05-17T11:28:09.138Z,22.57
2023-05-17T11:31:35.989Z,22.72
2023-05-17T11:34:07.048Z,22.88
2023-05-17T11:36:55.156Z,23.10
2023-05-17T11:39:24.723Z,23.43
2023-05-17T11:41:56.829Z,23.73
2023-05-17T11:44:30.960Z,23.92
2023-05-17T11:47:10.253Z,24.02
2023-05-17T11:49:39.397Z,24.10
2023-05-17T11:52:08.609Z,24.36
2023-05-17T11:54:38.551Z,24.55
2023-05-17T11:57:06.880Z,24.85
2023-05-17T11:59:39.465Z,25.04
2023-05-17T12:02:07.514Z,25.17
2023-05-17T12:04:37.428Z,25.22
2023-05-17T12:07:08.546Z,25.23
2023-05-17T12:09:38.200Z,25.36
2023-05-17T12:12:06.012Z,25.51
2023-05-17T12:14:33.536Z,25.56
2023-05-17T12:17:05.383Z,25.68
2023-05-17T12:19:33.174Z,25.59
2023-05-17T12:22:14.983Z,25.64
2023-05-17T12:24:43.578Z,25.81
2023-05-17T12:27:11.185Z,26.04
2023-05-17T12:29:39.642Z,26.17
2023-05-17T12:32:11.757Z,26.24
2023-05-17T12:34:40.417Z,26.16
2023-05-17T12:37:10.002Z,26.08
2023-05-17T12:39:38.045Z,26.08
2023-05-17T12:42:06.693Z,26.21
2023-05-17T12:44:34.304Z,26.34
2023-05-17T12:47:05.059Z,26.47
2023-05-17T12:49:38.904Z,26.47
2023-05-17T12:53:42.666Z,26.26
2023-05-17T12:56:26.716Z,26.14
2023-05-17T12:59:18.529Z,26.23
2023-05-17T13:01:48.355Z,26.51
2023-05-17T13:04:17.683Z,26.54
2023-05-17T13:06:59.830Z,26.56
2023-05-17T13:09:30.826Z,26.32
2023-05-17T13:12:06.835Z,26.15
2023-05-17T13:14:37.697Z,26.06
2023-05-17T13:17:08.648Z,26.00
2023-05-17T13:19:43.769Z,25.92
2023-05-17T13:22:11.509Z,25.80
2023-05-17T13:24:39.590Z,25.78
2023-05-17T13:27:07.529Z,25.67
2023-05-17T13:29:41.208Z,25.57
2023-05-17T13:32:12.057Z,25.41
2023-05-17T13:34:40.199Z,25.23
2023-05-17T13:37:11.632Z,25.02
2023-05-17T13:39:41.479Z,24.92
2023-05-17T13:42:11.158Z,24.88
2023-05-17T13:44:39.405Z,24.73
2023-05-17T13:47:07.552Z,24.66
2023-05-17T13:49:35.208Z,24.64
2023-05-17T13:52:03.364Z,24.48
2023-05-17T13:54:31.267Z,24.42
2023-05-17T13:56:59.110Z,24.34
2023-05-17T13:59:27.085Z,24.27
2023-05-17T14:01:54.514Z,24.30
2023-05-17T14:04:22.325Z,24.40
2023-05-17T14:06:53.188Z,24.63
2023-05-17T14:09:22.746Z,24.76
2023-05-17T14:11:50.389Z,24.86
2023-05-17T14:14:17.858Z,24.86
2023-05-17T14:16:45.510Z,24.91
2023-05-17T14:19:12.897Z,24.98
2023-05-17T14:21:40.593Z,25.05
2023-05-17T14:24:08.228Z,25.12
2023-05-17T14:26:36.693Z,25.08
2023-05-17T14:29:05.841Z,25.11
2023-05-17T14:31:33.376Z,25.15
2023-05-17T14:34:02.791Z,25.17
2023-05-17T14:36:30.280Z,25.13
2023-05-17T14:38:58.904Z,25.05
2023-05-17T14:41:26.705Z,24.90
2023-05-17T14:43:53.993Z,24.88
2023-05-17T14:46:21.701Z,24.76
2023-05-17T14:48:51.824Z,24.78
2023-05-17T14:51:19.742Z,24.76
2023-05-17T14:53:47.285Z,24.74
2023-05-17T14:56:14.892Z,24.70
2023-05-17T14:58:42.292Z,24.60
2023-05-17T15:01:10.061Z,24.59
2023-05-17T15:03:37.587Z,24.56
2023-05-17T15:06:08.219Z,24.51
2023-05-17T15:08:41.507Z,24.39
2023-05-17T15:11:09.226Z,24.36
2023-05-17T15:13:37.833Z,24.27
2023-05-17T15:16:06.048Z,24.15
2023-05-17T15:18:33.458Z,24.06
2023-05-17T15:21:02.420Z,23.90
2023-05-17T15:23:30.265Z,23.84
2023-05-17T15:25:57.737Z,23.77
2023-05-17T15:28:25.357Z,23.74
2023-05-17T15:31:01.664Z,23.68
2023-05-17T15:33:30.385Z,23.63
2023-05-17T15:35:58.457Z,23.54
2023-05-17T15:38:25.883Z,23.48
2023-05-17T15:41:04.036Z,23.46
2023-05-17T15:43:33.030Z,23.38
2023-05-17T15:46:00.665Z,23.41
2023-05-17T15:48:29.227Z,23.40
2023-05-17T15:50:57.221Z,23.37
2023-05-17T15:53:25.867Z,23.29
2023-05-17T15:55:53.227Z,23.17
2023-05-17T15:58:22.588Z,23.02
2023-05-17T16:00:50.423Z,23.00
2023-05-17T16:03:17.861Z,22.89
2023-05-17T16:05:45.610Z,22.79
2023-05-17T16:08:12.987Z,22.71
2023-05-17T16:10:40.282Z,22.64
2023-05-17T16:13:08.073Z,22.69
2023-05-17T16:15:35.559Z,22.71
2023-05-17T16:18:03.234Z,22.59
2023-05-17T16:20:31.270Z,22.54
2023-05-17T16:22:59.113Z,22.52
2023-05-17T16:25:27.009Z,22.53
2023-05-17T16:27:54.667Z,22.55
2023-05-17T16:30:22.766Z,22.51
2023-05-17T16:32:50.339Z,22.53
2023-05-17T16:35:22.215Z,22.47
2023-05-17T16:37:50.162Z,22.50
2023-05-17T16:40:18.049Z,22.48
2023-05-17T16:42:45.379Z,22.47
2023-05-17T16:45:12.724Z,22.43
2023-05-17T16:47:40.372Z,22.38
2023-05-17T16:50:08.758Z,22.35
2023-05-17T16:52:36.814Z,22.30
2023-05-17T16:55:06.087Z,22.23
2023-05-17T16:57:33.624Z,22.16
2023-05-17T17:00:01.274Z,22.09
2023-05-17T17:02:28.804Z,22.03
2023-05-17T17:04:58.149Z,21.92
2023-05-17T17:07:25.863Z,21.80
2023-05-17T17:09:53.114Z,21.80
2023-05-17T17:12:25.799Z,21.76
2023-05-17T17:15:18.111Z,21.71
2023-05-17T17:17:46.449Z,21.70
2023-05-17T17:20:13.884Z,21.57
2023-05-17T17:22:41.474Z,21.51
2023-05-17T17:25:09.781Z,21.53
2023-05-17T17:27:37.152Z,21.51
2023-05-17T17:30:06.220Z,21.41
2023-05-17T17:32:33.504Z,21.43
2023-05-17T17:35:00.981Z,21.37
2023-05-17T17:37:28.537Z,21.31
2023-05-17T17:39:56.370Z,21.25
2023-05-17T17:42:23.961Z,21.20
2023-05-17T17:44:51.499Z,21.16
2023-05-17T17:47:18.895Z,21.09
2023-05-17T17:49:46.451Z,21.01
2023-05-17T17:52:14.359Z,21.04
2023-05-17T17:54:42.209Z,21.01
2023-05-17T17:57:10.532Z,20.98
2023-05-17T17:59:37.851Z,20.91
2023-05-17T18:02:05.553Z,20.92
2023-05-17T18:04:33.031Z,20.85
2023-05-17T18:07:01.682Z,20.83
2023-05-17T18:09:29.043Z,20.81
2023-05-17T18:11:56.773Z,20.82
2023-05-17T18:14:24.045Z,20.78
2023-05-17T18:16:51.422Z,20.75
2023-05-17T18:19:19.185Z,20.72
2023-05-17T18:21:46.698Z,20.70
2023-05-17T18:24:14.018Z,20.69
2023-05-17T18:26:41.673Z,20.67
2023-05-17T18:29:08.989Z,20.66
2023-05-17T18:31:36.375Z,20.64
2023-05-17T18:34:03.939Z,20.60
2023-05-17T18:36:31.166Z,20.62
2023-05-17T18:39:00.385Z,20.61
2023-05-17T18:41:28.038Z,20.58
2023-05-17T18:44:01.033Z,20.59
2023-05-17T18:46:29.567Z,20.55
2023-05-17T18:48:57.675Z,20.58
2023-05-17T18:51:25.092Z,20.57
2023-05-17T18:53:53.617Z,20.55
2023-05-17T18:56:24.513Z,20.55
2023-05-17T18:58:55.265Z,20.55
2023-05-17T19:01:22.688Z,20.54
2023-05-17T19:03:51.151Z,20.53
2023-05-17T19:06:19.259Z,20.52
2023-05-17T19:08:49.387Z,20.46
2023-05-17T19:11:17.800Z,20.48
2023-05-17T19:13:45.708Z,20.50
2023-05-17T19:16:15.240Z,20.49
2023-05-17T19:18:42.823Z,20.49
2023-05-17T19:21:10.476Z,20.49
2023-05-17T19:23:38.072Z,20.48
2023-05-17T19:26:05.862Z,20.47
2023-05-17T19:28:35.301Z,20.48
2023-05-17T19:31:03.394Z,20.47
2023-05-17T19:33:31.697Z,20.41
2023-05-17T19:35:59.340Z,20.44
2023-05-17T19:38:26.946Z,20.43
2023-05-17T19:40:54.499Z,20.42
2023-05-17T19:43:21.968Z,20.40
2023-05-17T19:45:49.567Z,20.39
2023-05-17T19:48:17.478Z,20.37
2023-05-17T19:50:45.052Z,20.36
2023-05-17T19:53:12.330Z,20.35
2023-05-17T19:55:40.929Z,20.33
2023-05-17T19:58:08.592Z,20.32
2023-05-17T20:00:37.706Z,20.31
2023-05-17T20:03:05.407Z,20.28
2023-05-17T20:05:33.026Z,20.24
2023-05-17T20:08:02.216Z,20.21
2023-05-17T20:10:32.799Z,20.23
2023-05-17T20:13:00.310Z,20.21
2023-05-17T20:15:27.636Z,20.21
2023-05-17T20:17:55.484Z,20.21
2023-05-17T20:20:23.024Z,20.20
2023-05-17T20:22:50.857Z,20.20
2023-05-17T20:25:18.423Z,20.20
2023-05-17T20:27:45.866Z,20.19
2023-05-17T20:30:14.025Z,20.19
2023-05-17T20:32:41.526Z,20.17
2023-05-17T20:35:09.300Z,20.17
2023-05-17T20:37:36.994Z,20.15
2023-05-17T20:40:08.489Z,20.14
2023-05-17T20:42:37.511Z,20.11
2023-05-17T20:45:05.340Z,20.14
2023-05-17T20:47:33.392Z,20.08
2023-05-17T20:50:00.848Z,20.07
2023-05-17T20:52:38.769Z,20.09
2023-05-17T20:55:08.980Z,20.08
2023-05-17T20:57:36.514Z,20.06
2023-05-17T21:00:05.471Z,20.01
2023-05-17T21:02:32.888Z,19.93
2023-05-17T21:05:00.905Z,19.99
2023-05-17T21:07:29.967Z,19.98
2023-05-17T21:09:57.311Z,19.94
2023-05-17T21:12:25.350Z,19.89
2023-05-17T21:15:07.815Z,19.90
2023-05-17T21:17:35.757Z,19.87
2023-05-17T21:20:03.730Z,19.86
2023-05-17T21:22:31.307Z,19.85
2023-05-17T21:24:58.777Z,19.83
2023-05-17T21:27:26.101Z,19.81
2023-05-17T21:29:53.673Z,19.79
2023-05-17T21:32:21.346Z,19.79
2023-05-17T21:34:48.722Z,19.78
2023-05-17T21:37:15.992Z,19.77
2023-05-17T21:39:43.681Z,19.76
2023-05-17T21:42:11.120Z,19.75
2023-05-17T21:44:38.405Z,19.73
2023-05-17T21:47:05.895Z,19.72
2023-05-17T21:49:33.261Z,19.70
2023-05-17T21:52:00.722Z,19.69
2023-05-17T21:54:28.144Z,19.68
2023-05-17T21:56:55.744Z,19.67
2023-05-17T21:59:24.688Z,19.65
2023-05-17T22:01:57.417Z,19.63
2023-05-17T22:04:24.827Z,19.62
2023-05-17T22:06:52.615Z,19.57
2023-05-17T22:09:19.967Z,19.59
2023-05-17T22:11:47.341Z,19.57
2023-05-17T22:14:14.621Z,19.54
2023-05-17T22:16:41.896Z,19.52
2023-05-17T22:19:10.231Z,19.47
2023-05-17T22:21:37.586Z,19.41
2023-05-17T22:24:06.388Z,19.33
2023-05-17T22:26:33.780Z,19.29
2023-05-17T22:29:01.311Z,19.22
2023-05-17T22:31:28.800Z,19.18
2023-05-17T22:33:56.352Z,19.12
2023-05-17T22:36:26.279Z,19.08
2023-05-17T22:38:54.379Z,19.04
2023-05-17T22:41:21.896Z,19.05
2023-05-17T22:43:49.197Z,19.04
2023-05-17T22:46:16.876Z,19.05
2023-05-17T22:48:44.438Z,19.06
2023-05-17T22:51:12.303Z,19.07
2023-05-17T22:53:40.327Z,19.03
2023-05-17T22:56:07.772Z,19.03
2023-05-17T22:58:35.143Z,19.02
2023-05-17T23:01:02.746Z,19.03
2023-05-17T23:03:30.801Z,19.03
2023-05-17T23:06:04.695Z,19.04
2023-05-17T23:08:32.191Z,19.00
2023-05-17T23:10:59.596Z,18.98
2023-05-17T23:13:27.321Z,18.95
2023-05-17T23:15:55.477Z,18.89
2023-05-17T23:18:22.848Z,18.86
2023-05-17T23:20:50.520Z,18.82
2023-05-17T23:23:17.849Z,18.76
2023-05-17T23:25:48.198Z,18.68
2023-05-17T23:28:15.859Z,18.61
2023-05-17T23:30:44.173Z,18.57
2023-05-17T23:33:11.534Z,18.52
2023-05-17T23:35:38.873Z,18.50
2023-05-17T23:38:06.836Z,18.49
2023-05-17T23:40:34.272Z,18.45
2023-05-17T23:43:01.799Z,18.44
2023-05-17T23:45:30.105Z,18.40
2023-05-17T23:48:00.625Z,18.39
2023-05-17T23:50:28.485Z,18.38
2023-05-17T23:52:55.782Z,18.38
2023-05-17T23:55:23.364Z,18.37
2023-05-17T23:57:51.539Z,18.37
